createdAt,value
2022-09-09T00:01:31.705Z,8.42
2022-09-09T00:04:05.172Z,8.36
2022-09-09T00:06:36.579Z,8.32
2022-09-09T00:09:14.080Z,8.35
2022-09-09T00:11:59.535Z,8.32
2022-09-09T00:15:13.496Z,8.26
2022-09-09T00:17:57.634Z,8.25
2022-09-09T00:20:36.789Z,8.22
2022-09-09T00:23:20.780Z,8.20
2022-09-09T00:25:55.109Z,8.18
2022-09-09T00:28:25.971Z,8.18
2022-09-09T00:30:53.225Z,8.17
2022-09-09T00:33:24.047Z,8.16
2022-09-09T00:35:59.551Z,8.14
2022-09-09T00:38:43.032Z,8.09
2022-09-09T00:41:16.073Z,8.03
2022-09-09T00:43:44.239Z,7.99
2022-09-09T00:46:26.562Z,7.98
2022-09-09T00:49:10.998Z,7.94
2022-09-09T00:51:48.094Z,7.95
2022-09-09T00:54:39.147Z,7.95
2022-09-09T00:57:24.986Z,7.92
2022-09-09T01:00:21.023Z,7.95
2022-09-09T01:03:15.929Z,7.95
2022-09-09T01:06:18.230Z,7.93
2022-09-09T01:09:12.842Z,7.94
2022-09-09T01:12:02.800Z,7.90
2022-09-09T01:14:35.664Z,7.91
2022-09-09T01:17:23.437Z,7.93
2022-09-09T01:20:10.233Z,7.88
2022-09-09T01:22:51.368Z,7.90
2022-09-09T01:25:32.776Z,7.93
2022-09-09T01:28:09.319Z,7.91
2022-09-09T01:30:40.308Z,7.88
2022-09-09T01:33:13.835Z,7.92
2022-09-09T01:36:05.317Z,7.88
2022-09-09T01:38:34.115Z,7.72
2022-09-09T01:41:01.183Z,7.65
2022-09-09T01:43:29.308Z,7.64
2022-09-09T01:45:59.710Z,7.64
2022-09-09T01:48:27.354Z,7.61
2022-09-09T01:50:54.265Z,7.58
2022-09-09T01:53:22.636Z,7.55
2022-09-09T01:56:01.642Z,7.52
2022-09-09T01:58:47.056Z,7.45
2022-09-09T02:01:42.601Z,7.41
2022-09-09T02:04:35.860Z,7.34
2022-09-09T02:07:02.733Z,7.24
2022-09-09T02:09:31.325Z,7.26
2022-09-09T02:12:13.150Z,7.28
2022-09-09T02:14:47.919Z,7.29
2022-09-09T02:17:22.240Z,7.22
2022-09-09T02:19:55.441Z,7.21
2022-09-09T02:22:25.388Z,7.26
2022-09-09T02:24:56.710Z,7.27
2022-09-09T02:27:24.351Z,7.30
2022-09-09T02:29:55.883Z,7.28
2022-09-09T02:32:25.586Z,7.31
2022-09-09T02:35:01.059Z,7.33
2022-09-09T02:37:33.299Z,7.32
2022-09-09T02:40:00.285Z,7.31
2022-09-09T02:42:27.183Z,7.35
2022-09-09T02:44:57.206Z,7.38
2022-09-09T02:47:40.221Z,7.39
2022-09-09T02:50:14.830Z,7.33
2022-09-09T02:53:08.800Z,7.25
2022-09-09T02:55:47.556Z,7.19
2022-09-09T02:58:20.333Z,7.12
2022-09-09T03:00:49.602Z,7.05
2022-09-09T03:03:20.339Z,7.00
2022-09-09T03:05:47.331Z,6.93
2022-09-09T03:08:14.780Z,6.93
2022-09-09T03:10:41.535Z,6.90
2022-09-09T03:13:09.187Z,6.85
2022-09-09T03:15:36.658Z,6.83
2022-09-09T03:18:03.579Z,6.77
2022-09-09T03:20:31.264Z,6.74
2022-09-09T03:22:58.833Z,6.73
2022-09-09T03:25:25.818Z,6.72
2022-09-09T03:27:55.371Z,6.69
2022-09-09T03:30:24.028Z,6.69
2022-09-09T03:32:51.345Z,6.70
2022-09-09T03:35:18.261Z,6.75
2022-09-09T03:37:45.371Z,6.75
2022-09-09T03:40:12.839Z,6.74
2022-09-09T03:42:40.665Z,6.75
2022-09-09T03:45:10.325Z,6.77
2022-09-09T03:47:37.568Z,6.80
2022-09-09T03:50:09.151Z,6.84
2022-09-09T03:52:40.546Z,6.86
2022-09-09T03:55:08.351Z,6.86
2022-09-09T03:57:36.917Z,6.91
2022-09-09T04:00:09.371Z,6.92
2022-09-09T04:02:36.168Z,6.98
2022-09-09T04:05:03.292Z,7.03
2022-09-09T04:07:30.486Z,7.07
2022-09-09T04:09:58.200Z,7.10
2022-09-09T04:12:25.039Z,7.12
2022-09-09T04:14:51.773Z,7.11
2022-09-09T04:17:18.571Z,7.11
2022-09-09T04:19:47.536Z,7.12
2022-09-09T04:22:14.412Z,7.19
2022-09-09T04:24:42.725Z,7.21
2022-09-09T04:27:12.887Z,7.21
2022-09-09T04:29:39.627Z,7.23
2022-09-09T04:32:06.569Z,7.30
2022-09-09T04:34:33.925Z,7.42
2022-09-09T04:37:02.273Z,7.47
2022-09-09T04:39:29.062Z,7.53
2022-09-09T04:41:57.015Z,7.62
2022-09-09T04:44:23.775Z,7.68
2022-09-09T04:46:50.548Z,7.70
2022-09-09T04:49:17.439Z,7.73
2022-09-09T04:51:44.258Z,7.79
2022-09-09T04:54:11.764Z,7.87
2022-09-09T04:56:38.570Z,7.99
2022-09-09T04:59:05.418Z,8.05
2022-09-09T05:01:33.659Z,8.10
2022-09-09T05:04:02.819Z,8.12
2022-09-09T05:06:32.434Z,8.18
2022-09-09T05:09:01.875Z,8.23
2022-09-09T05:11:32.116Z,8.31
2022-09-09T05:13:58.759Z,8.31
2022-09-09T05:16:26.012Z,8.33
2022-09-09T05:18:52.978Z,8.40
2022-09-09T05:21:22.498Z,8.52
2022-09-09T05:23:49.745Z,8.60
2022-09-09T05:26:19.963Z,8.71
2022-09-09T05:28:47.222Z,8.74
2022-09-09T05:31:15.857Z,8.85
2022-09-09T05:33:44.636Z,9.03
2022-09-09T05:36:17.752Z,9.13
2022-09-09T05:38:45.226Z,9.19
2022-09-09T05:41:13.533Z,9.32
2022-09-09T05:43:40.436Z,9.39
2022-09-09T05:46:09.054Z,9.49
2022-09-09T05:48:38.666Z,9.65
2022-09-09T05:51:10.730Z,9.91
2022-09-09T05:53:37.954Z,10.09
2022-09-09T05:56:05.979Z,10.55
2022-09-09T05:58:34.330Z,10.60
2022-09-09T06:01:05.846Z,11.16
2022-09-09T06:03:32.892Z,12.33
2022-09-09T06:06:02.356Z,13.35
2022-09-09T06:08:29.603Z,13.44
2022-09-09T06:11:03.800Z,15.17
2022-09-09T06:13:31.593Z,17.22
2022-09-09T06:15:59.581Z,17.12
2022-09-09T06:18:27.247Z,16.61
2022-09-09T06:20:59.202Z,16.18
2022-09-09T06:23:26.497Z,15.78
2022-09-09T06:26:02.247Z,15.43
2022-09-09T06:28:29.092Z,15.24
2022-09-09T06:31:01.115Z,16.68
2022-09-09T06:33:31.651Z,18.58
2022-09-09T06:36:00.720Z,17.63
2022-09-09T06:38:27.557Z,16.75
2022-09-09T06:41:00.024Z,15.86
2022-09-09T06:43:27.888Z,15.33
2022-09-09T06:45:58.478Z,14.81
2022-09-09T06:48:29.111Z,14.36
2022-09-09T06:51:30.248Z,14.27
2022-09-09T06:53:59.359Z,14.43
2022-09-09T06:56:46.550Z,14.19
2022-09-09T06:59:13.456Z,13.67
2022-09-09T07:01:42.747Z,13.56
2022-09-09T07:04:12.015Z,13.14
2022-09-09T07:06:44.508Z,13.75
2022-09-09T07:09:13.854Z,14.28
2022-09-09T07:11:46.362Z,14.15
2022-09-09T07:14:15.131Z,13.98
2022-09-09T07:16:43.090Z,13.71
2022-09-09T07:19:10.750Z,13.33
2022-09-09T07:21:37.668Z,13.10
2022-09-09T07:24:08.394Z,13.27
2022-09-09T07:26:35.670Z,13.15
2022-09-09T07:29:04.155Z,12.87
2022-09-09T07:31:34.236Z,13.06
2022-09-09T07:34:01.620Z,13.28
2022-09-09T07:36:33.565Z,14.58
2022-09-09T07:39:06.188Z,14.90
2022-09-09T07:41:42.841Z,14.53
2022-09-09T07:44:15.906Z,14.17
2022-09-09T07:46:43.869Z,14.05
2022-09-09T07:49:11.966Z,14.14
2022-09-09T07:51:42.222Z,14.85
2022-09-09T07:54:12.272Z,14.77
2022-09-09T07:56:40.456Z,14.25
2022-09-09T07:59:08.358Z,13.92
2022-09-09T08:01:40.217Z,13.62
2022-09-09T08:04:11.001Z,13.53
2022-09-09T08:06:41.195Z,13.56
2022-09-09T08:09:09.511Z,13.56
2022-09-09T08:11:39.178Z,14.23
2022-09-09T08:14:08.661Z,17.01
2022-09-09T08:16:42.918Z,16.93
2022-09-09T08:19:09.868Z,17.37
2022-09-09T08:21:40.147Z,19.59
2022-09-09T08:24:08.543Z,22.59
2022-09-09T08:26:38.457Z,26.08
2022-09-09T08:29:07.780Z,28.93
2022-09-09T08:31:38.324Z,33.44
2022-09-09T08:34:06.835Z,32.31
2022-09-09T08:36:41.907Z,29.14
2022-09-09T08:39:10.471Z,25.14
2022-09-09T08:42:07.907Z,25.64
2022-09-09T08:44:59.123Z,28.38
2022-09-09T08:47:52.330Z,33.75
2022-09-09T08:50:25.925Z,37.67
2022-09-09T08:53:17.455Z,40.37
2022-09-09T08:55:59.890Z,41.23
2022-09-09T08:58:31.805Z,35.60
2022-09-09T09:01:10.739Z,33.08
2022-09-09T09:04:13.106Z,28.35
2022-09-09T09:07:01.252Z,24.25
2022-09-09T09:09:50.015Z,21.63
2022-09-09T09:12:24.533Z,20.55
2022-09-09T09:14:51.671Z,19.86
2022-09-09T09:17:20.547Z,19.19
2022-09-09T09:19:51.563Z,18.53
2022-09-09T09:22:26.484Z,24.53
2022-09-09T09:25:04.907Z,28.23
2022-09-09T09:27:33.361Z,33.47
2022-09-09T09:30:23.866Z,37.00
2022-09-09T09:32:55.619Z,33.31
2022-09-09T09:35:22.711Z,29.84
2022-09-09T09:40:36.571Z,25.42
2022-09-09T09:43:09.690Z,23.74
2022-09-09T09:45:55.280Z,22.57
2022-09-09T09:48:32.082Z,21.19
2022-09-09T09:51:03.697Z,19.93
2022-09-09T09:53:36.848Z,18.83
2022-09-09T09:56:09.217Z,17.99
2022-09-09T09:58:45.566Z,17.23
2022-09-09T10:01:34.373Z,16.52
2022-09-09T10:04:14.294Z,16.00
2022-09-09T10:06:41.863Z,15.59
2022-09-09T10:09:26.749Z,15.32
2022-09-09T10:12:24.107Z,15.28
2022-09-09T10:15:15.567Z,15.58
2022-09-09T10:18:08.231Z,15.73
2022-09-09T10:21:01.942Z,15.73
2022-09-09T10:23:46.195Z,15.69
2022-09-09T10:26:15.844Z,15.43
2022-09-09T10:29:12.602Z,15.31
2022-09-09T10:32:04.113Z,15.18
2022-09-09T10:34:36.820Z,15.12
2022-09-09T10:37:19.633Z,14.92
2022-09-09T10:39:46.692Z,14.60
2022-09-09T10:42:20.406Z,14.42
2022-09-09T10:44:57.963Z,14.40
2022-09-09T10:47:54.202Z,14.51
2022-09-09T10:50:50.329Z,14.67
2022-09-09T10:53:29.903Z,14.84
2022-09-09T10:56:13.774Z,14.59
2022-09-09T10:58:51.931Z,14.41
2022-09-09T11:01:55.697Z,14.15
2022-09-09T11:04:26.958Z,13.95
2022-09-09T11:06:56.626Z,13.79
2022-09-09T11:09:28.535Z,13.62
2022-09-09T11:12:00.598Z,13.54
2022-09-09T11:14:58.887Z,13.93
2022-09-09T11:17:32.543Z,14.33
2022-09-09T11:19:59.404Z,14.54
2022-09-09T11:22:39.243Z,14.43
2022-09-09T11:25:23.748Z,14.00
2022-09-09T11:28:10.664Z,13.65
2022-09-09T11:31:17.978Z,13.58
2022-09-09T11:34:07.176Z,13.61
2022-09-09T11:36:42.926Z,13.49
2022-09-09T11:39:39.602Z,13.30
2022-09-09T11:42:20.462Z,13.15
2022-09-09T11:44:47.935Z,13.18
2022-09-09T11:47:31.745Z,13.32
2022-09-09T11:50:19.753Z,13.44
2022-09-09T11:52:49.526Z,13.51
2022-09-09T11:55:33.946Z,13.68
2022-09-09T11:58:15.350Z,13.73
2022-09-09T12:00:45.054Z,13.71
2022-09-09T12:03:44.666Z,13.59
2022-09-09T12:06:12.003Z,13.55
2022-09-09T12:08:44.758Z,13.63
2022-09-09T12:11:12.123Z,13.68
2022-09-09T12:13:39.054Z,13.86
2022-09-09T12:16:06.903Z,13.92
2022-09-09T12:18:40.586Z,13.77
2022-09-09T12:21:42.638Z,13.52
2022-09-09T12:24:12.678Z,13.19
2022-09-09T12:26:45.858Z,12.85
2022-09-09T12:29:31.248Z,12.64
2022-09-09T12:32:13.254Z,12.55
2022-09-09T12:34:48.389Z,12.63
2022-09-09T12:37:29.297Z,12.71
2022-09-09T12:39:57.463Z,12.83
2022-09-09T12:42:25.669Z,12.86
2022-09-09T12:45:04.596Z,12.94
2022-09-09T12:47:42.653Z,12.98
2022-09-09T12:50:31.972Z,13.05
2022-09-09T12:53:26.537Z,13.11
2022-09-09T12:56:00.717Z,13.12
2022-09-09T12:58:31.757Z,13.12
2022-09-09T13:00:58.909Z,13.12
2022-09-09T13:03:28.437Z,13.12
2022-09-09T13:06:03.685Z,13.22
2022-09-09T13:08:30.505Z,13.49
2022-09-09T13:11:09.084Z,13.82
2022-09-09T13:13:41.345Z,13.92
2022-09-09T13:16:33.072Z,14.03
2022-09-09T13:19:07.804Z,13.98
2022-09-09T13:21:39.617Z,13.87
2022-09-09T13:24:25.925Z,13.75
2022-09-09T13:27:03.044Z,13.51
2022-09-09T13:29:33.764Z,13.28
2022-09-09T13:32:28.355Z,13.05
2022-09-09T13:35:00.450Z,12.83
2022-09-09T13:37:39.140Z,12.83
2022-09-09T13:40:08.122Z,12.72
2022-09-09T13:42:40.461Z,12.69
2022-09-09T13:45:17.067Z,12.64
2022-09-09T13:47:43.897Z,12.62
2022-09-09T13:50:22.156Z,12.65
2022-09-09T13:52:51.218Z,12.66
2022-09-09T13:55:19.524Z,12.69
2022-09-09T13:58:03.671Z,12.67
2022-09-09T14:00:32.912Z,12.67
2022-09-09T14:03:03.191Z,12.71
2022-09-09T14:05:32.958Z,12.77
2022-09-09T14:08:01.601Z,12.75
2022-09-09T14:10:28.481Z,12.75
2022-09-09T14:12:55.356Z,12.79
2022-09-09T14:15:22.947Z,12.77
2022-09-09T14:17:49.811Z,12.80
2022-09-09T14:20:18.758Z,12.80
2022-09-09T14:22:45.603Z,12.78
2022-09-09T14:25:14.660Z,12.68
2022-09-09T14:27:41.926Z,12.61
2022-09-09T14:30:09.811Z,12.57
2022-09-09T14:32:36.653Z,12.50
2022-09-09T14:35:03.677Z,12.46
2022-09-09T14:37:32.290Z,12.43
2022-09-09T14:39:59.502Z,12.39
2022-09-09T14:42:33.900Z,12.43
2022-09-09T14:45:05.019Z,12.38
2022-09-09T14:47:32.018Z,12.42
2022-09-09T14:49:58.731Z,12.47
2022-09-09T14:52:26.825Z,12.55
2022-09-09T14:54:53.671Z,12.54
2022-09-09T14:57:20.684Z,12.49
2022-09-09T14:59:47.504Z,12.50
2022-09-09T15:02:15.319Z,12.49
2022-09-09T15:04:45.344Z,12.42
2022-09-09T15:07:12.126Z,12.30
2022-09-09T15:09:38.856Z,12.21
2022-09-09T15:12:05.791Z,12.14
2022-09-09T15:14:32.584Z,12.07
2022-09-09T15:17:02.303Z,12.04
2022-09-09T15:19:31.623Z,12.01
2022-09-09T15:21:58.496Z,11.96
2022-09-09T15:24:26.953Z,11.93
2022-09-09T15:26:54.984Z,11.88
2022-09-09T15:29:21.734Z,11.87
2022-09-09T15:31:48.648Z,11.85
2022-09-09T15:34:15.851Z,11.87
2022-09-09T15:36:45.658Z,11.86
2022-09-09T15:39:16.681Z,11.81
2022-09-09T15:41:45.135Z,11.76
2022-09-09T15:44:16.562Z,11.75
2022-09-09T15:46:54.618Z,11.67
2022-09-09T15:49:26.485Z,11.63
2022-09-09T15:51:58.537Z,11.55
2022-09-09T15:54:27.261Z,11.44
2022-09-09T15:56:57.124Z,11.37
2022-09-09T15:59:25.280Z,11.37
2022-09-09T16:01:52.525Z,11.34
2022-09-09T16:04:24.415Z,11.38
2022-09-09T16:07:05.986Z,11.32
2022-09-09T16:09:34.032Z,11.32
2022-09-09T16:12:03.420Z,11.35
2022-09-09T16:14:35.450Z,11.32
2022-09-09T16:17:04.384Z,11.23
2022-09-09T16:19:33.782Z,11.06
2022-09-09T16:22:05.558Z,10.94
2022-09-09T16:24:32.336Z,10.94
2022-09-09T16:26:59.307Z,10.98
2022-09-09T16:29:28.402Z,10.99
2022-09-09T16:31:58.844Z,10.97
2022-09-09T16:34:29.652Z,10.91
2022-09-09T16:36:57.218Z,10.87
2022-09-09T16:39:24.231Z,10.80
2022-09-09T16:41:51.221Z,10.73
2022-09-09T16:44:20.495Z,10.68
2022-09-09T16:46:50.043Z,10.67
2022-09-09T16:49:17.321Z,10.64
2022-09-09T16:51:49.446Z,10.64
2022-09-09T16:54:18.317Z,10.59
2022-09-09T16:56:47.343Z,10.55
2022-09-09T16:59:22.552Z,10.53
2022-09-09T17:01:51.917Z,10.44
2022-09-09T17:04:26.532Z,10.41
2022-09-09T17:06:55.043Z,10.38
2022-09-09T17:09:23.853Z,10.37
2022-09-09T17:11:52.858Z,10.33
2022-09-09T17:14:21.222Z,10.30
2022-09-09T17:16:50.215Z,10.26
2022-09-09T17:19:17.182Z,10.25
2022-09-09T17:22:05.933Z,10.22
2022-09-09T17:24:31.013Z,10.20
2022-09-09T17:26:58.838Z,10.18
2022-09-09T17:29:28.261Z,10.18
2022-09-09T17:31:56.154Z,10.15
2022-09-09T17:34:23.065Z,10.11
2022-09-09T17:36:50.006Z,10.05
2022-09-09T17:39:19.341Z,9.99
2022-09-09T17:41:46.581Z,10.01
2022-09-09T17:44:13.377Z,9.98
2022-09-09T17:46:42.697Z,9.99
2022-09-09T17:49:15.582Z,9.99
2022-09-09T17:51:43.719Z,9.96
2022-09-09T17:54:13.739Z,9.94
2022-09-09T17:56:42.372Z,9.88
2022-09-09T17:59:11.364Z,9.88
2022-09-09T18:01:40.616Z,9.86
2022-09-09T18:04:09.790Z,9.83
2022-09-09T18:06:44.969Z,9.80
2022-09-09T18:09:14.875Z,9.75
2022-09-09T18:11:45.388Z,9.77
2022-09-09T18:14:16.554Z,9.74
2022-09-09T18:16:43.636Z,9.71
2022-09-09T18:19:14.040Z,9.71
2022-09-09T18:21:42.537Z,9.68
2022-09-09T18:24:11.866Z,9.64
2022-09-09T18:26:40.206Z,9.64
2022-09-09T18:29:11.256Z,9.63
2022-09-09T18:31:38.440Z,9.60
2022-09-09T18:34:07.896Z,9.60
2022-09-09T18:36:42.403Z,9.54
2022-09-09T18:39:10.843Z,9.52
2022-09-09T18:41:40.395Z,9.51
2022-09-09T18:44:11.312Z,9.47
2022-09-09T18:46:40.000Z,9.46
2022-09-09T18:49:07.841Z,9.45
2022-09-09T18:51:37.252Z,9.45
2022-09-09T18:54:08.060Z,9.42
2022-09-09T18:56:35.700Z,9.39
2022-09-09T18:59:07.092Z,9.34
2022-09-09T19:01:37.667Z,9.30
2022-09-09T19:04:06.425Z,9.30
2022-09-09T19:06:36.831Z,9.27
2022-09-09T19:09:04.979Z,9.26
2022-09-09T19:11:35.514Z,9.28
2022-09-09T19:14:05.907Z,9.27
2022-09-09T19:16:34.790Z,9.23
2022-09-09T19:19:08.060Z,9.23
2022-09-09T19:21:38.239Z,9.23
2022-09-09T19:24:08.125Z,9.16
2022-09-09T19:26:40.757Z,9.13
2022-09-09T19:29:10.311Z,9.10
2022-09-09T19:31:38.095Z,9.07
2022-09-09T19:34:05.278Z,9.05
2022-09-09T19:36:32.407Z,9.02
2022-09-09T19:39:00.595Z,9.02
2022-09-09T19:41:28.452Z,9.00
2022-09-09T19:44:01.982Z,9.03
2022-09-09T19:46:30.550Z,9.01
2022-09-09T19:48:58.930Z,8.98
2022-09-09T19:51:26.956Z,8.92
2022-09-09T19:54:00.576Z,8.90
2022-09-09T19:56:28.569Z,8.85
2022-09-09T19:58:56.423Z,8.79
2022-09-09T20:01:23.322Z,8.76
2022-09-09T20:03:52.339Z,8.74
2022-09-09T20:06:24.453Z,8.74
2022-09-09T20:08:51.241Z,8.73
2022-09-09T20:11:18.771Z,8.73
2022-09-09T20:13:45.717Z,8.68
2022-09-09T20:16:15.698Z,8.68
2022-09-09T20:18:45.817Z,8.65
2022-09-09T20:21:20.335Z,8.61
2022-09-09T20:23:48.470Z,8.61
2022-09-09T20:26:23.742Z,8.58
2022-09-09T20:28:51.755Z,8.51
2022-09-09T20:31:21.017Z,8.49
2022-09-09T20:33:48.410Z,8.49
2022-09-09T20:36:17.279Z,8.48
2022-09-09T20:38:47.681Z,8.48
2022-09-09T20:41:18.546Z,8.45
2022-09-09T20:43:53.540Z,8.44
2022-09-09T20:46:30.438Z,8.40
2022-09-09T20:49:02.648Z,8.38
2022-09-09T20:51:33.335Z,8.34
2022-09-09T20:54:03.864Z,8.24
2022-09-09T20:56:33.682Z,8.26
2022-09-09T20:59:02.848Z,8.29
2022-09-09T21:01:30.064Z,8.26
2022-09-09T21:03:57.076Z,8.25
2022-09-09T21:06:27.180Z,8.22
2022-09-09T21:08:56.160Z,8.18
2022-09-09T21:11:24.162Z,8.17
2022-09-09T21:13:51.572Z,8.17
2022-09-09T21:16:22.533Z,8.17
2022-09-09T21:18:50.451Z,8.14
2022-09-09T21:21:27.817Z,8.13
2022-09-09T21:23:57.457Z,8.10
2022-09-09T21:26:25.469Z,8.07
2022-09-09T21:28:53.737Z,8.04
2022-09-09T21:31:26.990Z,8.03
2022-09-09T21:33:54.524Z,8.03
2022-09-09T21:36:24.219Z,8.04
2022-09-09T21:38:51.229Z,7.99
2022-09-09T21:41:18.231Z,7.95
2022-09-09T21:43:46.871Z,7.97
2022-09-09T21:46:16.784Z,7.97
2022-09-09T21:48:44.265Z,7.96
2022-09-09T21:51:14.844Z,7.94
2022-09-09T21:53:42.303Z,7.94
2022-09-09T21:56:17.989Z,7.94
2022-09-09T21:58:45.214Z,7.89
2022-09-09T22:01:17.044Z,7.83
2022-09-09T22:03:44.995Z,7.80
2022-09-09T22:06:15.269Z,7.79
2022-09-09T22:08:42.834Z,7.77
2022-09-09T22:11:12.282Z,7.75
2022-09-09T22:13:39.362Z,7.75
2022-09-09T22:16:12.496Z,7.76
2022-09-09T22:18:40.377Z,7.71
2022-09-09T22:21:14.601Z,7.71
2022-09-09T22:23:41.587Z,7.67
2022-09-09T22:26:09.268Z,7.67
2022-09-09T22:28:37.611Z,7.66
2022-09-09T22:31:04.783Z,7.68
2022-09-09T22:33:31.624Z,7.68
2022-09-09T22:35:58.841Z,7.69
2022-09-09T22:38:25.929Z,7.69
2022-09-09T22:40:53.558Z,7.65
2022-09-09T22:43:21.779Z,7.63
2022-09-09T22:45:50.295Z,7.56
2022-09-09T22:48:17.330Z,7.47
2022-09-09T22:50:44.871Z,7.44
2022-09-09T22:53:15.668Z,7.45
2022-09-09T22:55:42.554Z,7.38
2022-09-09T22:58:10.167Z,7.38
2022-09-09T23:00:41.277Z,7.34
2022-09-09T23:03:08.403Z,7.34
2022-09-09T23:05:35.377Z,7.35
2022-09-09T23:08:02.482Z,7.42
2022-09-09T23:10:29.434Z,7.42
2022-09-09T23:12:56.870Z,7.44
2022-09-09T23:15:24.599Z,7.43
2022-09-09T23:17:55.182Z,7.43
2022-09-09T23:20:22.423Z,7.43
2022-09-09T23:22:49.438Z,7.39
2022-09-09T23:25:16.360Z,7.37
2022-09-09T23:27:43.554Z,7.34
2022-09-09T23:30:11.277Z,7.40
2022-09-09T23:32:38.987Z,7.39
2022-09-09T23:35:07.653Z,7.37
2022-09-09T23:37:34.851Z,7.35
2022-09-09T23:40:01.929Z,7.32
2022-09-09T23:42:32.977Z,7.30
2022-09-09T23:45:00.022Z,7.26
2022-09-09T23:47:27.675Z,7.25
2022-09-09T23:49:54.711Z,7.20
2022-09-09T23:52:22.151Z,7.19
2022-09-09T23:54:50.058Z,7.13
2022-09-09T23:57:16.805Z,7.13
2022-09-09T23:59:43.595Z,7.16
